createdAt,value
2018-11-14T00:03:52.919Z,99584.19
2018-11-14T00:08:46.406Z,99580.99
2018-11-14T00:13:39.785Z,99580.13
2018-11-14T00:18:33.284Z,99570.52
2018-11-14T00:23:26.718Z,99565.26
2018-11-14T00:28:20.178Z,99544.77
2018-11-14T00:33:14.089Z,99538.45
2018-11-14T00:38:07.181Z,99530.39
2018-11-14T00:43:02.716Z,99527.78
2018-11-14T00:47:56.200Z,99518.47
2018-11-14T00:52:49.612Z,99506.73
2018-11-14T00:57:44.247Z,99511.15
2018-11-14T01:02:37.982Z,99501.70
2018-11-14T01:07:31.556Z,99499.64
2018-11-14T01:12:25.024Z,99503.48
2018-11-14T01:17:18.486Z,99509.17
2018-11-14T01:22:11.883Z,99498.22
2018-11-14T01:27:05.474Z,99492.47
2018-11-14T01:31:58.851Z,99488.54
2018-11-14T01:36:52.661Z,99481.53
2018-11-14T01:41:46.172Z,99473.31
2018-11-14T01:46:39.570Z,99475.29
2018-11-14T01:51:33.075Z,99474.73
2018-11-14T01:56:26.942Z,99461.30
2018-11-14T02:01:20.361Z,99467.83
2018-11-14T02:06:13.809Z,99465.43
2018-11-14T02:11:07.334Z,99457.83
2018-11-14T02:16:00.879Z,99452.32
2018-11-14T02:20:54.260Z,99448.23
2018-11-14T02:25:47.749Z,99440.83
2018-11-14T02:30:41.190Z,99439.29
2018-11-14T02:35:34.637Z,99447.16
2018-11-14T02:40:28.196Z,99444.67
2018-11-14T02:45:21.651Z,99451.11
2018-11-14T02:50:16.312Z,99435.96
2018-11-14T02:55:11.191Z,99439.37
2018-11-14T03:00:05.329Z,99437.90
2018-11-14T03:04:58.830Z,99426.11
2018-11-14T03:09:52.292Z,99431.08
2018-11-14T03:14:45.744Z,99431.88
2018-11-14T03:19:39.069Z,99434.61
2018-11-14T03:24:32.745Z,99435.41
2018-11-14T03:29:26.160Z,99437.03
2018-11-14T03:34:19.535Z,99441.80
2018-11-14T03:39:13.027Z,99435.34
2018-11-14T03:44:06.927Z,99444.94
2018-11-14T03:49:00.286Z,99430.31
2018-11-14T03:53:53.752Z,99415.09
2018-11-14T03:58:47.308Z,99404.16
2018-11-14T04:03:40.712Z,99398.71
2018-11-14T04:08:34.112Z,99398.71
2018-11-14T04:13:27.647Z,99403.01
2018-11-14T04:18:21.022Z,99408.27
2018-11-14T04:23:14.385Z,99406.07
2018-11-14T04:28:07.804Z,99409.55
2018-11-14T04:33:01.416Z,99411.56
2018-11-14T04:37:54.890Z,99413.86
2018-11-14T04:42:48.362Z,99412.86
2018-11-14T04:47:42.148Z,99413.77
2018-11-14T04:52:35.580Z,99411.16
2018-11-14T04:57:29.063Z,99405.05
2018-11-14T05:02:22.400Z,99411.65
2018-11-14T05:07:16.066Z,99412.37
2018-11-14T05:12:09.486Z,99413.95
2018-11-14T05:17:03.032Z,99412.07
2018-11-14T05:21:56.584Z,99397.84
2018-11-14T05:26:49.987Z,99392.79
2018-11-14T05:31:43.493Z,99399.91
2018-11-14T05:36:36.936Z,99414.37
2018-11-14T05:41:30.481Z,99420.66
2018-11-14T05:46:23.911Z,99416.67
2018-11-14T05:51:17.305Z,99401.45
2018-11-14T05:56:10.827Z,99401.16
2018-11-14T06:01:04.673Z,99403.92
2018-11-14T06:05:58.093Z,99422.67
2018-11-14T06:10:51.592Z,99432.94
2018-11-14T06:15:45.230Z,99425.89
2018-11-14T06:20:38.677Z,99430.15
2018-11-14T06:25:34.481Z,99438.53
2018-11-14T06:30:28.149Z,99427.73
2018-11-14T06:35:21.901Z,99432.52
2018-11-14T06:40:15.357Z,99424.97
2018-11-14T06:45:11.775Z,99424.15
2018-11-14T06:50:06.592Z,99425.91
2018-11-14T06:55:00.124Z,99417.38
2018-11-14T06:59:53.723Z,99431.02
2018-11-14T07:04:51.787Z,99417.87
2018-11-14T07:09:45.322Z,99405.58
2018-11-14T07:14:38.826Z,99388.16
2018-11-14T07:19:32.383Z,99401.80
2018-11-14T07:24:25.930Z,99401.19
2018-11-14T07:29:19.329Z,99386.25
2018-11-14T07:34:12.698Z,99380.47
2018-11-14T07:39:09.353Z,99377.70
2018-11-14T07:44:06.528Z,99390.82
2018-11-14T07:49:00.223Z,99396.38
2018-11-14T07:53:53.699Z,99413.91
2018-11-14T07:58:47.369Z,99409.97
2018-11-14T08:03:40.915Z,99405.02
2018-11-14T08:08:34.348Z,99410.62
2018-11-14T08:13:29.049Z,99402.44
2018-11-14T08:18:22.839Z,99386.38
2018-11-14T08:23:16.441Z,99375.08
2018-11-14T08:28:09.996Z,99366.68
2018-11-14T08:33:03.713Z,99365.69
2018-11-14T08:37:57.205Z,99383.58
2018-11-14T08:42:50.736Z,99386.64
2018-11-14T08:47:44.228Z,99386.76
2018-11-14T08:52:37.897Z,99382.33
2018-11-14T08:57:31.314Z,99374.94
2018-11-14T09:02:24.790Z,99371.88
2018-11-14T09:07:18.335Z,99366.48
2018-11-14T09:12:12.049Z,99351.80
2018-11-14T09:17:06.007Z,99349.11
2018-11-14T09:22:00.113Z,99339.13
2018-11-14T09:26:53.617Z,99338.05
2018-11-14T09:31:47.207Z,99330.61
2018-11-14T09:36:40.601Z,99324.64
2018-11-14T09:41:34.477Z,99324.63
2018-11-14T09:46:27.991Z,99311.39
2018-11-14T09:51:21.450Z,99314.98
2018-11-14T09:56:15.255Z,99311.89
2018-11-14T10:01:08.700Z,99297.42
2018-11-14T10:06:02.193Z,99301.73
2018-11-14T10:10:55.851Z,99286.45
2018-11-14T10:15:49.337Z,99279.95
2018-11-14T10:20:42.762Z,99267.98
2018-11-14T10:25:36.196Z,99251.58
2018-11-14T10:30:29.897Z,99247.77
2018-11-14T10:35:23.408Z,99233.22
2018-11-14T10:40:22.021Z,99225.38
2018-11-14T10:45:17.128Z,99215.17
2018-11-14T10:50:13.508Z,99211.59
2018-11-14T10:55:07.860Z,99203.03
2018-11-14T11:00:01.465Z,99197.45
2018-11-14T11:05:00.352Z,99201.42
2018-11-14T11:09:59.338Z,99186.67
2018-11-14T11:14:58.299Z,99189.00
2018-11-14T11:19:51.894Z,99187.55
2018-11-14T11:24:45.488Z,99183.56
2018-11-14T11:29:38.947Z,99173.51
2018-11-14T11:34:32.447Z,99178.35
2018-11-14T11:39:26.148Z,99178.02
2018-11-14T11:44:19.819Z,99177.29
2018-11-14T11:49:13.416Z,99172.31
2018-11-14T11:54:07.443Z,99168.25
2018-11-14T11:59:01.094Z,99165.55
2018-11-14T12:03:54.655Z,99155.08
2018-11-14T12:08:48.202Z,99156.70
2018-11-14T12:13:41.817Z,99144.10
2018-11-14T12:18:35.333Z,99144.05
2018-11-14T12:23:29.118Z,99140.23
2018-11-14T12:28:22.746Z,99138.63
2018-11-14T12:33:16.414Z,99135.21
2018-11-14T12:38:10.082Z,99134.81
2018-11-14T12:43:03.645Z,99126.45
2018-11-14T12:47:57.040Z,99128.28
2018-11-14T12:52:50.663Z,99123.05
2018-11-14T12:57:44.108Z,99123.75
2018-11-14T13:02:40.069Z,99112.18
2018-11-14T13:07:33.587Z,99104.62
2018-11-14T13:12:27.072Z,99102.60
2018-11-14T13:17:20.756Z,99099.72
2018-11-14T13:22:15.738Z,99097.84
2018-11-14T13:27:09.272Z,99108.25
2018-11-14T13:32:02.760Z,99113.62
2018-11-14T13:36:56.792Z,99113.56
2018-11-14T13:41:50.296Z,99105.41
2018-11-14T13:46:43.908Z,99104.01
2018-11-14T13:51:37.834Z,99104.59
2018-11-14T13:56:31.568Z,99109.11
2018-11-14T14:01:25.295Z,99108.48
2018-11-14T14:06:18.785Z,99112.66
2018-11-14T14:11:12.382Z,99111.98
2018-11-14T14:16:06.108Z,99116.57
2018-11-14T14:20:59.701Z,99115.16
2018-11-14T14:25:53.308Z,99117.72
2018-11-14T14:30:46.988Z,99111.73
2018-11-14T14:35:40.600Z,99102.14
2018-11-14T14:40:34.288Z,99100.02
2018-11-14T14:45:27.867Z,99109.75
2018-11-14T14:50:21.439Z,99113.39
2018-11-14T14:55:20.402Z,99118.67
2018-11-14T15:00:18.637Z,99117.96
2018-11-14T15:05:13.029Z,99124.83
2018-11-14T15:10:08.907Z,99126.48
2018-11-14T15:15:02.520Z,99130.66
2018-11-14T15:19:56.177Z,99136.82
2018-11-14T15:24:49.681Z,99134.28
2018-11-14T15:29:43.158Z,99139.72
2018-11-14T15:34:36.777Z,99140.63
2018-11-14T15:39:30.356Z,99136.83
2018-11-14T15:44:23.811Z,99144.42
2018-11-14T15:49:17.304Z,99140.83
2018-11-14T15:54:10.853Z,99140.10
2018-11-14T15:59:04.589Z,99137.72
2018-11-14T16:03:58.411Z,99143.00
2018-11-14T16:08:51.966Z,99145.72
2018-11-14T16:13:50.805Z,99147.52
2018-11-14T16:18:44.337Z,99159.12
2018-11-14T16:23:37.853Z,99157.83
2018-11-14T16:28:31.624Z,99163.64
2018-11-14T16:33:26.326Z,99159.11
2018-11-14T16:38:19.855Z,99145.89
2018-11-14T16:43:14.462Z,99132.51
2018-11-14T16:48:07.998Z,99131.05
2018-11-14T16:53:01.426Z,99134.67
2018-11-14T16:57:55.720Z,99139.92
2018-11-14T17:02:49.435Z,99141.37
2018-11-14T17:07:43.076Z,99135.20
2018-11-14T17:12:36.519Z,99126.09
2018-11-14T17:17:29.874Z,99123.19
2018-11-14T17:22:23.932Z,99119.70
2018-11-14T17:27:17.634Z,99119.80
2018-11-14T17:32:11.504Z,99116.16
2018-11-14T17:37:05.460Z,99105.25
2018-11-14T17:42:00.614Z,99096.69
2018-11-14T17:46:54.343Z,99096.28
2018-11-14T17:51:48.057Z,99091.17
2018-11-14T17:56:41.844Z,99083.66
2018-11-14T18:01:35.555Z,99094.25
2018-11-14T18:06:29.335Z,99092.61
2018-11-14T18:11:22.825Z,99100.40
2018-11-14T18:16:16.948Z,99095.19
2018-11-14T18:21:10.551Z,99100.46
2018-11-14T18:26:04.151Z,99103.02
2018-11-14T18:30:57.872Z,99097.66
2018-11-14T18:35:51.500Z,99107.77
2018-11-14T18:40:45.380Z,99108.84
2018-11-14T18:45:39.332Z,99109.78
2018-11-14T18:50:34.551Z,99103.11
2018-11-14T18:55:29.577Z,99090.11
2018-11-14T19:00:31.207Z,99105.88
2018-11-14T19:05:24.877Z,99105.73
2018-11-14T19:10:19.946Z,99104.31
2018-11-14T19:15:16.340Z,99089.55
2018-11-14T19:20:12.635Z,99087.56
2018-11-14T19:25:07.929Z,99089.03
2018-11-14T19:30:01.452Z,99088.11
2018-11-14T19:34:54.994Z,99089.38
2018-11-14T19:39:48.510Z,99095.88
2018-11-14T19:44:41.970Z,99094.97
2018-11-14T19:49:35.455Z,99093.86
2018-11-14T19:54:29.163Z,99091.50
2018-11-14T19:59:22.848Z,99084.31
2018-11-14T20:04:16.534Z,99094.08
2018-11-14T20:09:10.878Z,99088.13
2018-11-14T20:14:05.501Z,99086.35
2018-11-14T20:18:59.394Z,99078.00
2018-11-14T20:23:53.162Z,99074.73
2018-11-14T20:28:46.799Z,99080.33
2018-11-14T20:33:40.417Z,99065.51
2018-11-14T20:38:34.137Z,99040.17
2018-11-14T20:43:27.656Z,99033.84
2018-11-14T20:48:21.050Z,99045.80
2018-11-14T20:53:14.709Z,99024.45
2018-11-14T20:58:08.295Z,99024.25
2018-11-14T21:03:01.971Z,99026.80
2018-11-14T21:07:55.837Z,99015.77
2018-11-14T21:12:50.103Z,99018.66
2018-11-14T21:17:44.069Z,99017.22
2018-11-14T21:22:37.795Z,99011.04
2018-11-14T21:27:31.339Z,99019.00
2018-11-14T21:32:24.967Z,99017.02
2018-11-14T21:37:18.582Z,99005.80
2018-11-14T21:42:12.120Z,99004.20
2018-11-14T21:47:05.615Z,99005.28
2018-11-14T21:51:59.645Z,99002.22
2018-11-14T21:56:53.163Z,98991.50
2018-11-14T22:01:47.614Z,98986.29
2018-11-14T22:06:41.161Z,98989.73
2018-11-14T22:11:34.631Z,98968.55
2018-11-14T22:16:28.177Z,98965.84
2018-11-14T22:21:21.880Z,98962.21
2018-11-14T22:26:15.500Z,98949.70
2018-11-14T22:31:09.136Z,98937.23
2018-11-14T22:36:02.774Z,98914.29
2018-11-14T22:40:56.337Z,98920.96
2018-11-14T22:45:49.844Z,98921.33
2018-11-14T22:50:44.271Z,98919.50
2018-11-14T22:55:37.753Z,98928.74
2018-11-14T23:00:32.992Z,98916.27
2018-11-14T23:05:26.700Z,98932.88
2018-11-14T23:10:21.240Z,98931.98
2018-11-14T23:15:14.678Z,98946.30
2018-11-14T23:20:11.200Z,98918.44
2018-11-14T23:25:05.147Z,98915.38
2018-11-14T23:29:58.671Z,98910.47
2018-11-14T23:34:57.572Z,98905.92
2018-11-14T23:39:51.055Z,98908.31
2018-11-14T23:44:44.529Z,98925.87
2018-11-14T23:49:38.988Z,98909.75
2018-11-14T23:54:32.434Z,98915.36
2018-11-14T23:59:26.110Z,98908.13
